createdAt,value
2015-11-26T00:00:32.660Z,997.9
2015-11-26T00:01:32.481Z,997.9
2015-11-26T00:02:32.588Z,997.9
2015-11-26T00:03:32.779Z,997.9
2015-11-26T00:04:32.441Z,997.8
2015-11-26T00:05:32.382Z,997.9
2015-11-26T00:06:32.165Z,997.8
2015-11-26T00:07:32.293Z,997.9
2015-11-26T00:08:32.202Z,997.9
2015-11-26T00:09:32.174Z,997.9
2015-11-26T00:10:32.082Z,997.9
2015-11-26T00:11:32.226Z,997.9
2015-11-26T00:12:31.976Z,997.9
2015-11-26T00:13:31.900Z,997.9
2015-11-26T00:14:31.857Z,997.8
2015-11-26T00:15:31.798Z,998
2015-11-26T00:16:31.737Z,997.9
2015-11-26T00:17:31.943Z,997.9
2015-11-26T00:18:31.617Z,997.9
2015-11-26T00:19:31.573Z,997.9
2015-11-26T00:20:31.513Z,997.9
2015-11-26T00:21:31.485Z,997.9
2015-11-26T00:22:31.442Z,997.9
2015-11-26T00:23:30.584Z,997.8
2015-11-26T00:24:31.305Z,998
2015-11-26T00:25:31.246Z,997.9
2015-11-26T00:26:31.187Z,998
2015-11-26T00:27:30.955Z,997.9
2015-11-26T00:28:31.067Z,997.8
2015-11-26T00:29:31.007Z,998
2015-11-26T00:30:30.963Z,998
2015-11-26T00:31:30.887Z,998
2015-11-26T00:32:30.828Z,997.9
2015-11-26T00:33:30.847Z,998
2015-11-26T00:34:30.958Z,998
2015-11-26T00:35:30.664Z,998
2015-11-26T00:36:30.620Z,997.9
2015-11-26T00:37:30.575Z,997.8
2015-11-26T00:38:30.531Z,997.9
2015-11-26T00:39:30.441Z,997.9
2015-11-26T00:40:30.380Z,997.9
2015-11-26T00:41:29.586Z,998.1
2015-11-26T00:42:30.261Z,998
2015-11-26T00:43:30.216Z,998
2015-11-26T00:44:30.142Z,998
2015-11-26T00:45:30.113Z,998.1
2015-11-26T00:46:30.038Z,998
2015-11-26T00:47:29.978Z,998
2015-11-26T00:48:30.168Z,998
2015-11-26T00:49:29.890Z,998
2015-11-26T00:50:29.813Z,998.1
2015-11-26T00:51:29.770Z,998.1
2015-11-26T00:52:29.694Z,998.1
2015-11-26T00:53:29.634Z,998
2015-11-26T00:54:29.591Z,998.1
2015-11-26T00:55:29.531Z,998
2015-11-26T00:56:29.471Z,998.1
2015-11-26T00:57:29.412Z,998.1
2015-11-26T00:58:29.351Z,998.2
2015-11-26T00:59:28.547Z,998.2
2015-11-26T01:00:29.238Z,998.1
2015-11-26T01:01:29.193Z,998.2
2015-11-26T01:02:29.134Z,998.1
2015-11-26T01:03:29.074Z,998.2
2015-11-26T01:04:29.077Z,998.3
2015-11-26T01:05:29.017Z,998.3
2015-11-26T01:06:28.910Z,998.3
2015-11-26T01:07:28.866Z,998.3
2015-11-26T01:08:28.791Z,998.3
2015-11-26T01:09:28.747Z,998.2
2015-11-26T01:10:28.671Z,998.2
2015-11-26T01:11:28.627Z,998.2
2015-11-26T01:12:28.567Z,998.3
2015-11-26T01:13:28.727Z,998.3
2015-11-26T01:14:28.479Z,998.3
2015-11-26T01:15:28.403Z,998.3
2015-11-26T01:16:28.359Z,998.4
2015-11-26T01:17:28.300Z,998.5
2015-11-26T01:18:28.223Z,998.4
2015-11-26T01:19:28.431Z,998.3
2015-11-26T01:20:28.118Z,998.4
2015-11-26T01:21:28.074Z,998.4
2015-11-26T01:22:52.533Z,998.5
2015-11-26T01:23:27.940Z,998.5
2015-11-26T01:24:27.879Z,998.4
2015-11-26T01:25:27.835Z,998.5
2015-11-26T01:26:28.010Z,998.5
2015-11-26T01:27:27.715Z,998.5
2015-11-26T01:28:27.656Z,998.4
2015-11-26T01:29:27.596Z,998.4
2015-11-26T01:30:27.584Z,998.4
2015-11-26T01:31:27.507Z,998.3
2015-11-26T01:32:27.465Z,998.5
2015-11-26T01:33:27.388Z,998.5
2015-11-26T01:34:27.313Z,998.4
2015-11-26T01:35:27.269Z,998.4
2015-11-26T01:36:27.210Z,998.5
2015-11-26T01:37:27.181Z,998.5
2015-11-26T01:38:27.293Z,998.5
2015-11-26T01:39:27.046Z,998.5
2015-11-26T01:40:27.189Z,998.5
2015-11-26T01:41:26.926Z,998.4
2015-11-26T01:42:26.867Z,998.4
2015-11-26T01:43:26.822Z,998.5
2015-11-26T01:44:26.763Z,998.5
2015-11-26T01:45:26.718Z,998.5
2015-11-26T01:46:26.503Z,998.5
2015-11-26T01:47:26.599Z,998.5
2015-11-26T01:48:26.539Z,998.5
2015-11-26T01:49:26.511Z,998.5
2015-11-26T01:50:26.467Z,998.5
2015-11-26T01:51:26.345Z,998.5
2015-11-26T01:52:26.315Z,998.5
2015-11-26T01:53:26.240Z,998.5
2015-11-26T01:54:26.180Z,998.6
2015-11-26T01:55:26.152Z,998.6
2015-11-26T01:56:26.076Z,998.5
2015-11-26T01:57:26.017Z,998.6
2015-11-26T01:58:25.956Z,998.5
2015-11-26T01:59:25.928Z,998.7
2015-11-26T02:00:26.055Z,998.5
2015-11-26T02:01:25.805Z,998.5
2015-11-26T02:02:25.730Z,998.6
2015-11-26T02:03:25.874Z,998.5
2015-11-26T02:04:25.642Z,998.6
2015-11-26T02:05:25.567Z,998.5
2015-11-26T02:06:25.522Z,998.5
2015-11-26T02:07:25.463Z,998.5
2015-11-26T02:08:25.403Z,998.6
2015-11-26T02:09:25.359Z,998.5
2015-11-26T02:10:25.361Z,998.7
2015-11-26T02:11:25.239Z,998.6
2015-11-26T02:12:25.383Z,998.6
2015-11-26T02:13:25.120Z,998.7
2015-11-26T02:14:25.091Z,998.6
2015-11-26T02:15:25.047Z,998.6
2015-11-26T02:16:24.941Z,998.7
2015-11-26T02:17:24.896Z,998.6
2015-11-26T02:18:24.837Z,998.7
2015-11-26T02:19:24.808Z,998.7
2015-11-26T02:20:24.749Z,998.7
2015-11-26T02:21:24.861Z,998.7
2015-11-26T02:22:24.613Z,998.6
2015-11-26T02:23:24.554Z,998.7
2015-11-26T02:24:24.493Z,998.8
2015-11-26T02:25:24.637Z,998.8
2015-11-26T02:26:24.374Z,998.8
2015-11-26T02:27:23.549Z,998.7
2015-11-26T02:28:24.255Z,998.8
2015-11-26T02:29:24.210Z,998.9
2015-11-26T02:30:24.151Z,998.9
2015-11-26T02:31:24.091Z,998.9
2015-11-26T02:32:24.031Z,998.8
2015-11-26T02:33:24.003Z,998.9
2015-11-26T02:34:23.927Z,998.9
2015-11-26T02:35:23.867Z,998.9
2015-11-26T02:36:24.057Z,998.8
2015-11-26T02:37:23.842Z,998.9
2015-11-26T02:38:23.751Z,998.9
2015-11-26T02:39:23.659Z,998.9
2015-11-26T02:40:23.803Z,998.9
2015-11-26T02:41:23.540Z,998.9
2015-11-26T02:42:23.496Z,999
2015-11-26T02:43:23.514Z,998.8
2015-11-26T02:44:23.439Z,998.9
2015-11-26T02:45:23.317Z,999
2015-11-26T02:46:23.272Z,999
2015-11-26T02:47:23.212Z,998.9
2015-11-26T02:48:23.169Z,998.9
2015-11-26T02:49:22.968Z,998.9
2015-11-26T02:50:23.064Z,999
2015-11-26T02:51:22.973Z,998.8
2015-11-26T02:52:22.930Z,998.9
2015-11-26T02:53:22.870Z,998.9
2015-11-26T02:54:22.810Z,999
2015-11-26T02:55:22.750Z,998.9
2015-11-26T02:56:21.925Z,998.8
2015-11-26T02:57:22.647Z,999
2015-11-26T02:58:22.586Z,999
2015-11-26T02:59:22.558Z,998.9
2015-11-26T03:00:22.483Z,998.9
2015-11-26T03:01:22.408Z,999.1
2015-11-26T03:02:22.378Z,999
2015-11-26T03:03:22.491Z,999
2015-11-26T03:04:22.243Z,999
2015-11-26T03:05:22.183Z,999.1
2015-11-26T03:06:22.124Z,999.2
2015-11-26T03:07:22.046Z,999.1
2015-11-26T03:08:21.986Z,999.1
2015-11-26T03:09:22.176Z,999.2
2015-11-26T03:10:21.882Z,999.2
2015-11-26T03:11:21.837Z,999.3
2015-11-26T03:12:22.012Z,999.2
2015-11-26T03:13:21.718Z,999.3
2015-11-26T03:14:21.658Z,999.4
2015-11-26T03:15:21.598Z,999.3
2015-11-26T03:16:21.554Z,999.2
2015-11-26T03:17:21.495Z,999.1
2015-11-26T03:18:21.638Z,999.3
2015-11-26T03:19:21.610Z,999.2
2015-11-26T03:20:21.331Z,999.3
2015-11-26T03:21:21.256Z,999.4
2015-11-26T03:22:21.226Z,999.4
2015-11-26T03:23:21.151Z,999.4
2015-11-26T03:24:21.092Z,999.5
2015-11-26T03:25:21.470Z,999.5
2015-11-26T03:26:20.988Z,999.4
2015-11-26T03:27:20.943Z,999.5
2015-11-26T03:28:20.868Z,999.5
2015-11-26T03:29:20.668Z,999.5
2015-11-26T03:30:20.795Z,999.5
2015-11-26T03:31:20.736Z,999.5
2015-11-26T03:32:20.832Z,999.5
2015-11-26T03:33:20.585Z,999.4
2015-11-26T03:34:20.542Z,999.5
2015-11-26T03:35:20.465Z,999.6
2015-11-26T03:36:20.625Z,999.5
2015-11-26T03:37:20.534Z,999.6
2015-11-26T03:38:20.302Z,999.6
2015-11-26T03:39:20.258Z,999.5
2015-11-26T03:40:20.183Z,999.4
2015-11-26T03:41:20.170Z,999.5
2015-11-26T03:42:20.094Z,999.5
2015-11-26T03:43:20.019Z,999.5
2015-11-26T03:44:20.193Z,999.5
2015-11-26T03:45:19.915Z,999.5
2015-11-26T03:46:19.855Z,999.5
2015-11-26T03:47:19.998Z,999.5
2015-11-26T03:48:19.783Z,999.4
2015-11-26T03:49:19.692Z,999.5
2015-11-26T03:50:19.631Z,999.6
2015-11-26T03:51:19.556Z,999.6
2015-11-26T03:52:19.512Z,999.6
2015-11-26T03:53:19.468Z,999.6
2015-11-26T03:54:19.408Z,999.6
2015-11-26T03:55:19.380Z,999.7
2015-11-26T03:56:19.305Z,999.7
2015-11-26T03:57:19.245Z,999.5
2015-11-26T03:58:19.200Z,999.6
2015-11-26T03:59:19.156Z,999.7
2015-11-26T04:00:19.065Z,999.7
2015-11-26T04:01:19.006Z,999.7
2015-11-26T04:02:18.961Z,999.8
2015-11-26T04:03:18.902Z,999.8
2015-11-26T04:04:18.857Z,999.8
2015-11-26T04:05:18.813Z,999.7
2015-11-26T04:06:18.738Z,999.8
2015-11-26T04:07:18.710Z,999.8
2015-11-26T04:08:18.821Z,999.7
2015-11-26T04:09:18.605Z,999.7
2015-11-26T04:10:18.499Z,999.7
2015-11-26T04:11:18.439Z,999.8
2015-11-26T04:12:18.379Z,999.8
2015-11-26T04:13:18.335Z,999.9
2015-11-26T04:14:18.276Z,999.8
2015-11-26T04:15:18.231Z,1000
2015-11-26T04:16:18.171Z,1000
2015-11-26T04:17:18.111Z,999.9
2015-11-26T04:18:18.052Z,1000
2015-11-26T04:19:17.990Z,999.9
2015-11-26T04:20:17.976Z,999.9
2015-11-26T04:21:17.900Z,999.9
2015-11-26T04:22:17.840Z,999.9
2015-11-26T04:23:17.765Z,999.9
2015-11-26T04:24:17.721Z,1000
2015-11-26T04:25:17.662Z,1000
2015-11-26T04:26:17.837Z,1000
2015-11-26T04:27:17.558Z,1000
2015-11-26T04:28:17.498Z,1000
2015-11-26T04:29:17.453Z,1000
2015-11-26T04:30:17.379Z,1000.1
2015-11-26T04:31:17.334Z,1000.1
2015-11-26T04:32:17.306Z,1000.2
2015-11-26T04:33:17.215Z,1000.1
2015-11-26T04:34:17.156Z,1000.2
2015-11-26T04:35:17.095Z,1000.2
2015-11-26T04:36:17.051Z,1000
2015-11-26T04:37:16.975Z,1000.2
2015-11-26T04:38:16.963Z,1000.2
2015-11-26T04:39:16.887Z,1000.1
2015-11-26T04:40:16.186Z,1000.1
2015-11-26T04:41:16.768Z,1000.3
2015-11-26T04:42:16.708Z,1000.3
2015-11-26T04:43:16.648Z,1000.2
2015-11-26T04:44:16.619Z,1000.1
2015-11-26T04:45:16.544Z,1000.1
2015-11-26T04:46:16.485Z,1000.2
2015-11-26T04:47:16.425Z,1000.2
2015-11-26T04:48:16.396Z,1000.2
2015-11-26T04:49:16.352Z,1000.3
2015-11-26T04:50:16.292Z,1000.2
2015-11-26T04:51:16.201Z,1000.2
2015-11-26T04:52:16.204Z,1000.3
2015-11-26T04:53:16.332Z,1000.3
2015-11-26T04:54:16.038Z,1000.3
2015-11-26T04:55:15.212Z,1000.3
2015-11-26T04:56:15.933Z,1000.3
2015-11-26T04:57:15.905Z,1000.4
2015-11-26T04:58:15.814Z,1000.4
2015-11-26T04:59:15.755Z,1000.4
2015-11-26T05:00:15.710Z,1000.4
2015-11-26T05:01:15.650Z,1000.4
2015-11-26T05:02:15.591Z,1000.4
2015-11-26T05:03:15.546Z,1000.4
2015-11-26T05:04:15.487Z,1000.4
2015-11-26T05:05:15.427Z,1000.3
2015-11-26T05:06:15.383Z,1000.4
2015-11-26T05:07:15.307Z,1000.3
2015-11-26T05:08:15.262Z,1000.4
2015-11-26T05:09:15.625Z,1000.4
2015-11-26T05:10:15.144Z,1000.4
2015-11-26T05:11:15.084Z,1000.5
2015-11-26T05:12:15.212Z,1000.4
2015-11-26T05:13:14.980Z,1000.4
2015-11-26T05:14:14.920Z,1000.4
2015-11-26T05:15:14.860Z,1000.4
2015-11-26T05:16:14.800Z,1000.5
2015-11-26T05:17:14.757Z,1000.7
2015-11-26T05:18:14.698Z,1000.5
2015-11-26T05:19:14.637Z,1000.7
2015-11-26T05:20:14.593Z,1000.6
2015-11-26T05:21:14.564Z,1000.4
2015-11-26T05:22:14.473Z,1000.5
2015-11-26T05:23:14.522Z,1000.5
2015-11-26T05:24:14.397Z,1000.8
2015-11-26T05:25:14.292Z,1000.6
2015-11-26T05:26:14.247Z,1000.8
2015-11-26T05:27:14.312Z,1000.9
2015-11-26T05:28:14.128Z,1000.8
2015-11-26T05:29:14.084Z,1001
2015-11-26T05:30:14.227Z,1000.9
2015-11-26T05:31:13.964Z,1001
2015-11-26T05:32:13.903Z,1001
2015-11-26T05:33:13.845Z,1000.9
2015-11-26T05:34:13.801Z,1000.9
2015-11-26T05:35:13.741Z,1001
2015-11-26T05:36:13.915Z,1001
2015-11-26T05:37:13.622Z,1000.9
2015-11-26T05:38:13.811Z,1001
2015-11-26T05:39:13.517Z,1001
2015-11-26T05:40:13.458Z,1001.1
2015-11-26T05:41:13.413Z,1001
2015-11-26T05:42:13.353Z,1001.1
2015-11-26T05:43:13.293Z,1001
2015-11-26T05:44:13.233Z,1000.9
2015-11-26T05:45:13.222Z,1001
2015-11-26T05:46:13.114Z,1001.2
2015-11-26T05:47:13.086Z,1001.1
2015-11-26T05:48:13.105Z,1001.1
2015-11-26T05:49:12.967Z,1001.1
2015-11-26T05:50:12.953Z,1001.2
2015-11-26T05:51:12.846Z,1001.3
2015-11-26T05:52:12.803Z,1001.2
2015-11-26T05:53:12.743Z,1001.4
2015-11-26T05:54:12.683Z,1001.3
2015-11-26T05:55:12.608Z,1001.3
2015-11-26T05:56:12.579Z,1001.4
2015-11-26T05:57:12.504Z,1001.4
2015-11-26T05:58:12.460Z,1001.3
2015-11-26T05:59:12.416Z,1001.5
2015-11-26T06:00:12.340Z,1001.3
2015-11-26T06:01:12.296Z,1001.4
2015-11-26T06:02:12.236Z,1001.4
2015-11-26T06:03:12.176Z,1001.5
2015-11-26T06:04:12.132Z,1001.5
2015-11-26T06:05:12.057Z,1001.5
2015-11-26T06:06:11.997Z,1001.5
2015-11-26T06:07:12.141Z,1001.5
2015-11-26T06:08:11.893Z,1001.5
2015-11-26T06:09:11.834Z,1001.5
2015-11-26T06:10:11.774Z,1001.5
2015-11-26T06:11:11.730Z,1001.5
2015-11-26T06:12:11.654Z,1001.6
2015-11-26T06:13:11.610Z,1001.6
2015-11-26T06:14:11.550Z,1001.6
2015-11-26T06:15:11.522Z,1001.5
2015-11-26T06:16:11.478Z,1001.5
2015-11-26T06:17:11.401Z,1001.6
2015-11-26T06:18:11.327Z,1001.6
2015-11-26T06:19:11.268Z,1001.8
2015-11-26T06:20:11.207Z,1001.6
2015-11-26T06:21:11.188Z,1001.6
2015-11-26T06:22:11.110Z,1001.7
2015-11-26T06:23:11.022Z,1001.6
2015-11-26T06:24:10.967Z,1001.7
2015-11-26T06:25:11.130Z,1001.8
2015-11-26T06:26:11.059Z,1001.8
2015-11-26T06:27:10.773Z,1001.8
2015-11-26T06:28:10.708Z,1001.7
2015-11-26T06:29:10.707Z,1001.6
2015-11-26T06:30:10.597Z,1001.7
2015-11-26T06:31:10.548Z,1001.7
2015-11-26T06:32:10.657Z,1001.8
2015-11-26T06:33:10.644Z,1001.7
2015-11-26T06:34:10.347Z,1001.9
2015-11-26T06:35:10.302Z,1001.9
2015-11-26T06:36:10.240Z,1001.9
2015-11-26T06:37:10.180Z,1001.8
2015-11-26T06:38:10.119Z,1001.9
2015-11-26T06:39:10.075Z,1001.9
2015-11-26T06:40:09.999Z,1001.8
2015-11-26T06:41:09.956Z,1002
2015-11-26T06:42:09.910Z,1002
2015-11-26T06:43:09.835Z,1002
2015-11-26T06:44:09.790Z,1002.1
2015-11-26T06:45:09.730Z,1002.2
2015-11-26T06:46:09.670Z,1002.2
2015-11-26T06:47:09.610Z,1002.2
2015-11-26T06:48:09.628Z,1002.1
2015-11-26T06:49:09.506Z,1002.2
2015-11-26T06:50:09.446Z,1002.3
2015-11-26T06:51:09.402Z,1002.3
2015-11-26T06:52:09.327Z,1002.2
2015-11-26T06:53:09.298Z,1002.3
2015-11-26T06:54:09.223Z,1002.3
2015-11-26T06:55:09.162Z,1002.3
2015-11-26T06:56:09.119Z,1002.4
2015-11-26T06:57:09.058Z,1002.3
2015-11-26T06:58:09.014Z,1002.5
2015-11-26T06:59:08.955Z,1002.3
2015-11-26T07:00:08.911Z,1002.5
2015-11-26T07:01:08.820Z,1002.4
2015-11-26T07:02:08.761Z,1002.4
2015-11-26T07:03:08.731Z,1002.5
2015-11-26T07:04:08.891Z,1002.6
2015-11-26T07:05:08.644Z,1002.5
2015-11-26T07:06:08.536Z,1002.6
2015-11-26T07:07:08.492Z,1002.5
2015-11-26T07:08:08.448Z,1002.7
2015-11-26T07:09:08.372Z,1002.6
2015-11-26T07:10:08.328Z,1002.6
2015-11-26T07:11:08.269Z,1002.7
2015-11-26T07:12:08.208Z,1002.6
2015-11-26T07:13:08.150Z,1002.7
2015-11-26T07:14:08.105Z,1002.6
2015-11-26T07:15:08.030Z,1002.7
2015-11-26T07:16:08.033Z,1002.7
2015-11-26T07:17:07.942Z,1002.7
2015-11-26T07:18:07.711Z,1002.8
2015-11-26T07:19:07.822Z,1002.8
2015-11-26T07:20:07.762Z,1002.8
2015-11-26T07:21:07.702Z,1002.7
2015-11-26T07:22:07.643Z,1002.7
2015-11-26T07:23:07.614Z,1002.8
2015-11-26T07:24:07.536Z,1002.8
2015-11-26T07:25:07.476Z,1002.9
2015-11-26T07:26:07.432Z,1002.9
2015-11-26T07:27:07.356Z,1002.8
2015-11-26T07:28:07.343Z,1002.8
2015-11-26T07:29:07.269Z,1002.9
2015-11-26T07:30:07.193Z,1002.8
2015-11-26T07:31:07.133Z,1003
2015-11-26T07:32:07.090Z,1002.9
2015-11-26T07:33:07.030Z,1003
2015-11-26T07:34:06.970Z,1003
2015-11-26T07:35:06.910Z,1002.9
2015-11-26T07:36:06.865Z,1003
2015-11-26T07:37:07.243Z,1003
2015-11-26T07:38:06.746Z,1003
2015-11-26T07:39:06.687Z,1003.1
2015-11-26T07:40:06.643Z,1003
2015-11-26T07:41:06.771Z,1003
2015-11-26T07:42:06.507Z,1003.2
2015-11-26T07:43:06.447Z,1003.1
2015-11-26T07:44:06.387Z,1003.1
2015-11-26T07:45:06.469Z,1003.1
2015-11-26T07:46:06.284Z,1003.2
2015-11-26T07:47:06.256Z,1003.1
2015-11-26T07:48:06.179Z,1003.1
2015-11-26T07:49:06.104Z,1003.2
2015-11-26T07:50:06.059Z,1003.3
2015-11-26T07:51:06.001Z,1003.2
2015-11-26T07:52:05.987Z,1003.3
2015-11-26T07:53:06.114Z,1003.2
2015-11-26T07:54:05.836Z,1003.2
2015-11-26T07:55:05.761Z,1003.4
2015-11-26T07:56:05.717Z,1003.2
2015-11-26T07:57:05.501Z,1003.2
2015-11-26T07:58:05.598Z,1003.3
2015-11-26T07:59:05.553Z,1003.3
2015-11-26T08:00:05.494Z,1003.4
2015-11-26T08:01:05.434Z,1003.4
2015-11-26T08:02:05.374Z,1003.4
2015-11-26T08:03:05.314Z,1003.4
2015-11-26T08:04:05.270Z,1003.5
2015-11-26T08:05:05.195Z,1003.5
2015-11-26T08:06:05.182Z,1003.5
2015-11-26T08:07:05.075Z,1003.6
2015-11-26T08:08:05.031Z,1003.7
2015-11-26T08:09:04.971Z,1003.6
2015-11-26T08:10:04.927Z,1003.6
2015-11-26T08:11:04.868Z,1003.6
2015-11-26T08:12:04.792Z,1003.5
2015-11-26T08:13:04.748Z,1003.7
2015-11-26T08:14:04.688Z,1003.7
2015-11-26T08:15:04.644Z,1003.8
2015-11-26T08:16:04.850Z,1003.7
2015-11-26T08:17:04.588Z,1003.6
2015-11-26T08:18:04.465Z,1003.7
2015-11-26T08:19:04.405Z,1003.6
2015-11-26T08:20:04.346Z,1003.6
2015-11-26T08:21:04.489Z,1003.7
2015-11-26T08:22:03.476Z,1003.7
2015-11-26T08:23:04.182Z,1003.7
2015-11-26T08:24:04.122Z,1003.6
2015-11-26T08:25:04.077Z,1003.5
2015-11-26T08:26:04.033Z,1003.6
2015-11-26T08:27:04.020Z,1003.6
2015-11-26T08:28:04.117Z,1003.5
2015-11-26T08:29:03.838Z,1003.6
2015-11-26T08:30:03.779Z,1003.7
2015-11-26T08:31:03.734Z,1003.5
2015-11-26T08:32:03.690Z,1003.5
2015-11-26T08:33:03.645Z,1003.6
2015-11-26T08:34:03.554Z,1003.6
2015-11-26T08:35:03.495Z,1003.7
2015-11-26T08:36:03.451Z,1003.5
2015-11-26T08:37:03.610Z,1003.7
2015-11-26T08:38:03.329Z,1003.7
2015-11-26T08:39:03.285Z,1003.8
2015-11-26T08:40:03.225Z,1003.7
2015-11-26T08:41:03.165Z,1003.5
2015-11-26T08:42:03.120Z,1003.6
2015-11-26T08:43:03.061Z,1003.8
2015-11-26T08:44:02.986Z,1003.8
2015-11-26T08:45:02.941Z,1003.8
2015-11-26T08:46:02.881Z,1003.9
2015-11-26T08:47:02.853Z,1003.8
2015-11-26T08:48:02.965Z,1003.7
2015-11-26T08:49:02.717Z,1003.8
2015-11-26T08:50:02.658Z,1003.8
2015-11-26T08:51:02.645Z,1003.8
2015-11-26T08:52:02.538Z,1003.8
2015-11-26T08:53:02.494Z,1003.8
2015-11-26T08:54:02.435Z,1004
2015-11-26T08:55:02.609Z,1003.8
2015-11-26T08:56:02.346Z,1003.8
2015-11-26T08:57:02.302Z,1003.9
2015-11-26T08:58:02.211Z,1003.8
2015-11-26T08:59:02.152Z,1003.9
2015-11-26T09:00:02.326Z,1003.8
2015-11-26T09:01:02.079Z,1003.9
2015-11-26T09:02:01.988Z,1003.9
2015-11-26T09:03:01.959Z,1003.8
2015-11-26T09:04:01.868Z,1004
2015-11-26T09:05:01.824Z,1004
2015-11-26T09:06:01.749Z,1003.8
2015-11-26T09:07:01.705Z,1003.7
2015-11-26T09:08:01.644Z,1003.8
2015-11-26T09:09:01.584Z,1003.8
2015-11-26T09:10:01.541Z,1003.8
2015-11-26T09:11:01.684Z,1004
2015-11-26T09:12:01.437Z,1003.9
2015-11-26T09:13:01.580Z,1004
2015-11-26T09:14:01.317Z,1003.9
2015-11-26T09:15:01.507Z,1003.8
2015-11-26T09:16:01.260Z,1003.8
2015-11-26T09:17:01.169Z,1003.9
2015-11-26T09:18:01.093Z,1004
2015-11-26T09:19:01.049Z,1003.8
2015-11-26T09:20:01.177Z,1003.9
2015-11-26T09:21:00.930Z,1004
2015-11-26T09:22:00.870Z,1004
2015-11-26T09:23:01.045Z,1003.9
2015-11-26T09:24:00.766Z,1004
2015-11-26T09:25:00.737Z,1003.9
2015-11-26T09:26:00.647Z,1004
2015-11-26T09:27:00.603Z,1003.9
2015-11-26T09:28:00.528Z,1004.1
2015-11-26T09:29:00.484Z,1004.1
2015-11-26T09:30:00.658Z,1004.1
2015-11-26T09:31:00.364Z,1004.1
2015-11-26T09:32:00.319Z,1004
2015-11-26T09:33:00.259Z,1004.1
2015-11-26T09:34:00.215Z,1004
2015-11-26T09:35:00.155Z,1004
2015-11-26T09:36:00.112Z,1004.1
2015-11-26T09:37:00.052Z,1004.1
2015-11-26T09:38:00.008Z,1004.1
2015-11-26T09:38:59.183Z,1004
2015-11-26T09:39:59.889Z,1004.1
2015-11-26T09:40:59.829Z,1004.1
2015-11-26T09:41:59.769Z,1004.2
2015-11-26T09:42:59.725Z,1004.2
2015-11-26T09:43:59.649Z,1004.3
2015-11-26T09:44:59.652Z,1004.2
2015-11-26T09:45:59.561Z,1004.2
2015-11-26T09:46:59.516Z,1004.2
2015-11-26T09:47:59.472Z,1004.2
2015-11-26T09:48:59.678Z,1004.3
2015-11-26T09:49:59.350Z,1004.2
2015-11-26T09:50:59.321Z,1004.2
2015-11-26T09:51:59.277Z,1004.2
2015-11-26T09:52:59.186Z,1004.3
2015-11-26T09:53:59.127Z,1004.3
2015-11-26T09:54:59.270Z,1004.3
2015-11-26T09:55:59.022Z,1004.3
2015-11-26T09:56:58.994Z,1004.3
2015-11-26T09:57:58.902Z,1004.3
2015-11-26T09:58:58.891Z,1004.5
2015-11-26T09:59:58.877Z,1004.4
2015-11-26T10:00:58.818Z,1004.5
2015-11-26T10:01:58.696Z,1004.5
2015-11-26T10:02:58.651Z,1004.6
2015-11-26T10:03:58.607Z,1004.6
2015-11-26T10:04:58.735Z,1004.5
2015-11-26T10:05:58.488Z,1004.5
2015-11-26T10:06:58.427Z,1004.6
2015-11-26T10:07:58.384Z,1004.6
2015-11-26T10:08:58.323Z,1004.7
2015-11-26T10:09:58.280Z,1004.6
2015-11-26T10:10:58.251Z,1004.5
2015-11-26T10:11:58.223Z,1004.5
2015-11-26T10:12:58.115Z,1004.5
2015-11-26T10:13:58.041Z,1004.7
2015-11-26T10:14:57.996Z,1004.6
2015-11-26T10:15:57.937Z,1004.6
2015-11-26T10:16:57.908Z,1004.6
2015-11-26T10:17:57.832Z,1004.6
2015-11-26T10:18:57.976Z,1004.5
2015-11-26T10:19:57.744Z,1004.6
2015-11-26T10:20:57.669Z,1004.6
2015-11-26T10:21:57.625Z,1004.6
2015-11-26T10:22:57.565Z,1004.6
2015-11-26T10:23:57.568Z,1004.5
2015-11-26T10:24:57.492Z,1004.5
2015-11-26T10:25:57.417Z,1004.5
2015-11-26T10:26:57.357Z,1004.4
2015-11-26T10:27:57.328Z,1004.6
2015-11-26T10:28:57.253Z,1004.6
2015-11-26T10:29:57.396Z,1004.6
2015-11-26T10:30:57.150Z,1004.7
2015-11-26T10:31:57.105Z,1004.7
2015-11-26T10:32:57.030Z,1004.6
2015-11-26T10:33:56.986Z,1004.7
2015-11-26T10:34:57.004Z,1004.7
2015-11-26T10:35:56.945Z,1004.7
2015-11-26T10:36:56.822Z,1004.6
2015-11-26T10:37:56.762Z,1004.7
2015-11-26T10:38:56.718Z,1004.6
2015-11-26T10:39:56.658Z,1004.8
2015-11-26T10:40:56.599Z,1004.7
2015-11-26T10:41:56.632Z,1004.7
2015-11-26T10:42:56.511Z,1004.7
2015-11-26T10:43:56.497Z,1004.8
2015-11-26T10:44:56.391Z,1004.7
2015-11-26T10:45:56.330Z,1004.7
2015-11-26T10:46:56.271Z,1004.7
2015-11-26T10:47:56.211Z,1004.8
2015-11-26T10:48:56.167Z,1004.7
2015-11-26T10:49:56.107Z,1004.8
2015-11-26T10:50:56.063Z,1004.8
2015-11-26T10:51:56.004Z,1004.8
2015-11-26T10:52:56.177Z,1004.8
2015-11-26T10:53:55.916Z,1004.8
2015-11-26T10:54:55.840Z,1004.8
2015-11-26T10:55:55.811Z,1004.8
2015-11-26T10:56:55.718Z,1004.8
2015-11-26T10:57:55.657Z,1004.8
2015-11-26T10:58:55.613Z,1004.9
2015-11-26T10:59:55.569Z,1004.9
2015-11-26T11:00:55.493Z,1004.8
2015-11-26T11:01:55.450Z,1004.9
2015-11-26T11:02:55.406Z,1004.8
2015-11-26T11:03:55.346Z,1004.9
2015-11-26T11:04:55.270Z,1005
2015-11-26T11:05:55.227Z,1004.9
2015-11-26T11:06:55.183Z,1004.9
2015-11-26T11:07:55.123Z,1005
2015-11-26T11:08:55.063Z,1005
2015-11-26T11:09:55.003Z,1005
2015-11-26T11:10:54.959Z,1005
2015-11-26T11:11:54.884Z,1005
2015-11-26T11:12:54.840Z,1005
2015-11-26T11:13:54.779Z,1005
2015-11-26T11:14:54.735Z,1005
2015-11-26T11:15:54.676Z,1005
2015-11-26T11:16:54.616Z,1005
2015-11-26T11:17:54.557Z,1004.9
2015-11-26T11:18:54.543Z,1005
2015-11-26T11:19:54.452Z,1005.1
2015-11-26T11:20:54.627Z,1005
2015-11-26T11:21:54.348Z,1005
2015-11-26T11:22:54.336Z,1005.1
2015-11-26T11:23:54.245Z,1005
2015-11-26T11:24:54.184Z,1005
2015-11-26T11:25:54.126Z,1005.1
2015-11-26T11:26:54.253Z,1005
2015-11-26T11:27:54.006Z,1005
2015-11-26T11:28:53.961Z,1005.1
2015-11-26T11:29:53.886Z,1005
2015-11-26T11:30:53.858Z,1005.1
2015-11-26T11:31:53.798Z,1005
2015-11-26T11:32:53.739Z,1005.2
2015-11-26T11:33:53.772Z,1005
2015-11-26T11:34:53.665Z,1005
2015-11-26T11:35:53.559Z,1005
2015-11-26T11:36:53.515Z,1005.2
2015-11-26T11:37:53.455Z,1005.1
2015-11-26T11:38:53.411Z,1005.1
2015-11-26T11:39:53.336Z,1005.1
2015-11-26T11:40:53.322Z,1005.1
2015-11-26T11:41:53.231Z,1005.1
2015-11-26T11:42:53.187Z,1005.2
2015-11-26T11:43:52.362Z,1005.2
2015-11-26T11:44:53.067Z,1005.1
2015-11-26T11:45:53.008Z,1005.2
2015-11-26T11:46:52.963Z,1005.1
2015-11-26T11:47:52.904Z,1005.1
2015-11-26T11:48:53.047Z,1005.1
2015-11-26T11:49:52.797Z,1005.1
2015-11-26T11:50:52.753Z,1005.1
2015-11-26T11:51:52.678Z,1005.2
2015-11-26T11:52:52.681Z,1005.2
2015-11-26T11:53:52.574Z,1005.1
2015-11-26T11:54:52.530Z,1005.1
2015-11-26T11:55:52.470Z,1005.2
2015-11-26T11:56:52.410Z,1005.2
2015-11-26T11:57:52.367Z,1005.3
2015-11-26T11:58:52.307Z,1005.2
2015-11-26T11:59:52.278Z,1005.2
2015-11-26T12:00:52.203Z,1005.1
2015-11-26T12:01:52.127Z,1005.2
2015-11-26T12:02:52.084Z,1005.2
2015-11-26T12:03:52.039Z,1005.1
2015-11-26T12:04:52.042Z,1005.3
2015-11-26T12:05:51.967Z,1005.2
2015-11-26T12:06:51.875Z,1005.2
2015-11-26T12:07:51.816Z,1005
2015-11-26T12:08:51.755Z,1005.2
2015-11-26T12:09:51.713Z,1005.1
2015-11-26T12:10:51.652Z,1005
2015-11-26T12:11:51.592Z,1005
2015-11-26T12:12:51.548Z,1005.1
2015-11-26T12:13:51.488Z,1005.3
2015-11-26T12:14:51.444Z,1005.1
2015-11-26T12:15:51.385Z,1005.2
2015-11-26T12:16:51.388Z,1005.2
2015-11-26T12:17:51.327Z,1005.3
2015-11-26T12:18:51.221Z,1005.2
2015-11-26T12:19:51.177Z,1005.2
2015-11-26T12:20:51.118Z,1005.3
2015-11-26T12:21:51.073Z,1005.2
2015-11-26T12:22:50.998Z,1005.2
2015-11-26T12:23:51.001Z,1005.2
2015-11-26T12:24:50.909Z,1005.3
2015-11-26T12:25:50.850Z,1005.3
2015-11-26T12:26:50.790Z,1005.4
2015-11-26T12:27:50.730Z,1005.3
2015-11-26T12:28:50.701Z,1005.4
2015-11-26T12:29:50.657Z,1005.4
2015-11-26T12:30:50.582Z,1005.3
2015-11-26T12:31:50.523Z,1005.4
2015-11-26T12:32:50.479Z,1005.4
2015-11-26T12:33:50.434Z,1005.3
2015-11-26T12:34:50.356Z,1005.3
2015-11-26T12:35:50.359Z,1005.3
2015-11-26T12:36:50.473Z,1005.4
2015-11-26T12:37:49.442Z,1005.5
2015-11-26T12:38:50.148Z,1005.3
2015-11-26T12:39:50.088Z,1005.4
2015-11-26T12:40:49.888Z,1005.3
2015-11-26T12:41:49.968Z,1005.4